createdAt,value
2024-01-31T00:02:52.837Z,27.60
2024-01-31T00:05:54.672Z,26.13
2024-01-31T00:08:58.094Z,25.73
2024-01-31T00:11:59.909Z,28.20
2024-01-31T00:15:01.832Z,24.27
2024-01-31T00:18:03.914Z,26.97
2024-01-31T00:21:05.752Z,30.23
2024-01-31T00:24:07.807Z,27.93
2024-01-31T00:27:09.737Z,31.00
2024-01-31T00:30:12.008Z,30.77
2024-01-31T00:33:13.915Z,26.53
2024-01-31T00:36:16.517Z,28.13
2024-01-31T00:39:21.569Z,24.90
2024-01-31T00:42:23.351Z,26.23
2024-01-31T00:45:25.259Z,27.63
2024-01-31T00:48:27.453Z,26.67
2024-01-31T00:51:29.325Z,30.10
2024-01-31T00:54:31.679Z,29.97
2024-01-31T00:57:33.547Z,25.80
2024-01-31T01:00:35.451Z,27.00
2024-01-31T01:03:37.236Z,26.63
2024-01-31T01:06:42.560Z,21.60
2024-01-31T01:09:44.511Z,26.63
2024-01-31T01:12:46.357Z,25.03
2024-01-31T01:15:48.340Z,29.27
2024-01-31T01:18:50.566Z,26.07
2024-01-31T01:21:52.382Z,26.07
2024-01-31T01:24:54.241Z,26.53
2024-01-31T01:27:56.151Z,27.03
2024-01-31T01:30:58.050Z,27.47
2024-01-31T01:34:00.480Z,27.13
2024-01-31T01:37:02.414Z,27.37
2024-01-31T01:40:04.809Z,25.23
2024-01-31T01:43:18.713Z,26.57
2024-01-31T01:46:22.423Z,27.60
2024-01-31T01:49:24.609Z,26.80
2024-01-31T01:52:27.300Z,26.53
2024-01-31T01:55:29.867Z,30.53
2024-01-31T01:58:34.685Z,26.57
2024-01-31T02:01:38.608Z,25.70
2024-01-31T02:04:40.693Z,24.77
2024-01-31T02:07:42.653Z,27.97
2024-01-31T02:10:44.637Z,23.37
2024-01-31T02:13:46.588Z,26.53
2024-01-31T02:16:48.592Z,26.57
2024-01-31T02:19:50.506Z,29.20
2024-01-31T02:22:52.870Z,28.67
2024-01-31T02:25:55.024Z,28.37
2024-01-31T02:28:56.975Z,26.37
2024-01-31T02:31:58.826Z,32.93
2024-01-31T02:35:00.805Z,25.43
2024-01-31T02:38:02.837Z,26.53
2024-01-31T02:41:04.760Z,27.60
2024-01-31T02:44:06.584Z,24.63
2024-01-31T02:47:08.466Z,22.97
2024-01-31T02:50:10.706Z,22.43
2024-01-31T02:53:12.603Z,27.07
2024-01-31T02:56:14.535Z,24.13
2024-01-31T02:59:16.319Z,25.43
2024-01-31T03:02:19.107Z,22.70
2024-01-31T03:05:21.107Z,23.90
2024-01-31T03:08:22.885Z,22.77
2024-01-31T03:11:24.699Z,28.53
2024-01-31T03:14:26.483Z,27.73
2024-01-31T03:17:28.323Z,25.30
2024-01-31T03:20:30.185Z,24.40
2024-01-31T03:23:31.978Z,25.67
2024-01-31T03:26:33.892Z,24.70
2024-01-31T03:29:37.309Z,26.77
2024-01-31T03:32:39.483Z,26.40
2024-01-31T03:35:41.676Z,27.80
2024-01-31T03:38:43.514Z,28.03
2024-01-31T03:41:45.809Z,26.47
2024-01-31T03:44:48.033Z,24.90
2024-01-31T03:47:49.970Z,24.63
2024-01-31T03:50:51.912Z,30.40
2024-01-31T03:53:53.699Z,25.43
2024-01-31T03:56:55.497Z,25.50
2024-01-31T03:59:57.268Z,23.73
2024-01-31T04:02:59.088Z,29.37
2024-01-31T04:06:00.901Z,25.60
2024-01-31T04:09:02.760Z,28.60
2024-01-31T04:12:05.313Z,27.93
2024-01-31T04:15:07.597Z,25.93
2024-01-31T04:18:09.915Z,26.57
2024-01-31T04:21:18.574Z,27.43
2024-01-31T04:24:20.369Z,30.63
2024-01-31T04:27:22.175Z,30.53
2024-01-31T04:30:24.028Z,25.57
2024-01-31T04:33:26.004Z,24.43
2024-01-31T04:36:27.877Z,26.33
2024-01-31T04:39:30.067Z,28.07
2024-01-31T04:42:34.899Z,27.17
2024-01-31T04:45:36.691Z,24.13
2024-01-31T04:48:38.646Z,25.03
2024-01-31T04:51:43.987Z,23.67
2024-01-31T04:54:45.841Z,23.20
2024-01-31T04:57:47.691Z,26.43
2024-01-31T05:00:49.544Z,25.90
2024-01-31T05:03:51.477Z,22.00
2024-01-31T05:06:53.292Z,26.33
2024-01-31T05:09:55.367Z,26.17
2024-01-31T05:12:57.225Z,26.87
2024-01-31T05:15:59.085Z,25.17
2024-01-31T05:19:00.965Z,23.17
2024-01-31T05:22:02.998Z,26.53
2024-01-31T05:25:07.456Z,27.67
2024-01-31T05:28:09.375Z,23.67
2024-01-31T05:31:11.287Z,28.03
2024-01-31T05:34:13.219Z,26.50
2024-01-31T05:37:15.077Z,21.50
2024-01-31T05:40:17.856Z,27.70
2024-01-31T05:43:20.089Z,27.20
2024-01-31T05:46:21.987Z,26.93
2024-01-31T05:49:23.999Z,29.13
2024-01-31T05:52:26.033Z,26.80
2024-01-31T05:55:28.489Z,25.30
2024-01-31T05:58:30.864Z,30.97
2024-01-31T06:01:32.822Z,29.27
2024-01-31T06:04:34.883Z,28.60
2024-01-31T06:07:36.866Z,25.17
2024-01-31T06:10:38.757Z,26.63
2024-01-31T06:13:40.717Z,26.97
2024-01-31T06:16:42.809Z,28.23
2024-01-31T06:19:49.164Z,25.10
2024-01-31T06:22:51.175Z,27.57
2024-01-31T06:25:53.349Z,26.07
2024-01-31T06:28:55.793Z,29.20
2024-01-31T06:32:01.437Z,30.30
2024-01-31T06:35:03.928Z,31.63
2024-01-31T06:38:06.580Z,30.07
2024-01-31T06:41:08.878Z,29.53
2024-01-31T06:44:10.718Z,28.80
2024-01-31T06:47:12.678Z,28.90
2024-01-31T06:50:14.546Z,26.93
2024-01-31T06:53:16.574Z,27.27
2024-01-31T06:56:20.350Z,29.37
2024-01-31T06:59:22.365Z,29.50
2024-01-31T07:02:24.536Z,29.63
2024-01-31T07:05:26.422Z,30.87
2024-01-31T07:08:28.244Z,27.80
2024-01-31T07:11:30.157Z,33.00
2024-01-31T07:14:32.001Z,67.60
2024-01-31T07:17:33.812Z,58.27
2024-01-31T07:20:36.018Z,73.77
2024-01-31T07:23:38.014Z,59.33
2024-01-31T07:26:39.784Z,49.53
2024-01-31T07:29:46.250Z,42.67
2024-01-31T07:32:48.040Z,43.47
2024-01-31T07:35:49.954Z,44.67
2024-01-31T07:38:51.759Z,53.47
2024-01-31T07:41:53.820Z,56.27
2024-01-31T07:44:55.655Z,50.13
2024-01-31T07:47:58.155Z,52.67
2024-01-31T07:51:04.539Z,48.83
2024-01-31T07:54:07.144Z,41.93
2024-01-31T07:57:09.459Z,45.93
2024-01-31T08:00:11.934Z,40.10
2024-01-31T08:03:14.021Z,37.63
2024-01-31T08:06:15.976Z,38.67
2024-01-31T08:09:22.732Z,40.60
2024-01-31T08:12:25.206Z,32.97
2024-01-31T08:15:27.059Z,40.27
2024-01-31T08:18:28.953Z,36.20
2024-01-31T08:21:34.065Z,40.50
2024-01-31T08:24:35.875Z,42.37
2024-01-31T08:27:37.799Z,41.87
2024-01-31T08:30:40.539Z,39.43
2024-01-31T08:33:42.488Z,35.60
2024-01-31T08:36:44.408Z,30.50
2024-01-31T08:39:46.304Z,34.37
2024-01-31T08:42:48.229Z,31.67
2024-01-31T08:45:50.132Z,29.47
2024-01-31T08:48:51.983Z,30.63
2024-01-31T08:51:55.196Z,36.53
2024-01-31T08:54:57.113Z,32.43
2024-01-31T08:57:59.299Z,40.27
2024-01-31T09:01:01.941Z,37.10
2024-01-31T09:04:04.727Z,42.03
2024-01-31T09:07:06.641Z,38.63
2024-01-31T09:10:08.703Z,38.67
2024-01-31T09:13:11.073Z,39.67
2024-01-31T09:16:13.512Z,52.13
2024-01-31T09:19:15.509Z,40.80
2024-01-31T09:22:17.529Z,45.03
2024-01-31T09:25:19.616Z,48.50
2024-01-31T09:28:21.961Z,43.80
2024-01-31T09:31:25.213Z,56.10
2024-01-31T09:34:27.120Z,38.33
2024-01-31T09:37:29.213Z,36.90
2024-01-31T09:40:31.909Z,50.13
2024-01-31T09:43:34.084Z,43.87
2024-01-31T09:46:37.584Z,42.67
2024-01-31T09:49:39.817Z,53.83
2024-01-31T09:52:42.261Z,136.83
2024-01-31T09:55:45.151Z,38.13
2024-01-31T09:58:48.274Z,84.00
2024-01-31T10:01:53.768Z,87.20
2024-01-31T10:04:55.793Z,46.87
2024-01-31T10:08:04.172Z,58.63
2024-01-31T10:11:06.755Z,120.70
2024-01-31T10:14:08.555Z,50.83
2024-01-31T10:17:10.551Z,82.17
2024-01-31T10:20:15.412Z,49.00
2024-01-31T10:23:18.014Z,53.20
2024-01-31T10:26:20.029Z,50.50
2024-01-31T10:29:22.452Z,43.97
2024-01-31T10:32:24.996Z,58.00
2024-01-31T10:35:48.291Z,45.43
2024-01-31T10:38:51.724Z,42.90
2024-01-31T10:41:54.484Z,56.90
2024-01-31T10:44:57.420Z,44.37
2024-01-31T10:47:59.458Z,45.13
2024-01-31T10:51:03.097Z,49.50
2024-01-31T10:54:07.694Z,47.23
2024-01-31T10:57:11.040Z,49.63
2024-01-31T11:00:27.233Z,40.00
2024-01-31T11:03:29.587Z,47.03
2024-01-31T11:06:40.846Z,42.47
2024-01-31T11:09:43.582Z,38.63
2024-01-31T11:12:55.573Z,45.03
2024-01-31T11:15:57.408Z,40.67
2024-01-31T11:19:00.498Z,41.17
2024-01-31T11:22:02.551Z,39.77
2024-01-31T11:25:08.887Z,41.43
2024-01-31T11:28:16.885Z,36.47
2024-01-31T11:31:19.446Z,34.23
2024-01-31T11:34:21.595Z,38.27
2024-01-31T11:37:23.558Z,37.03
2024-01-31T11:40:25.838Z,36.60
2024-01-31T11:43:27.769Z,38.77
2024-01-31T11:46:30.042Z,36.43
2024-01-31T11:49:31.956Z,36.70
2024-01-31T11:52:33.839Z,35.50
2024-01-31T11:55:36.274Z,38.83
2024-01-31T11:58:38.872Z,36.53
2024-01-31T12:01:41.008Z,39.07
2024-01-31T12:04:58.443Z,31.20
2024-01-31T12:08:01.517Z,37.63
2024-01-31T12:11:03.894Z,34.23
2024-01-31T12:14:05.732Z,42.23
2024-01-31T12:17:21.492Z,33.67
2024-01-31T12:20:23.765Z,34.37
2024-01-31T12:23:25.721Z,34.67
2024-01-31T12:26:27.554Z,33.03
2024-01-31T12:29:29.353Z,30.10
2024-01-31T12:32:31.629Z,28.83
2024-01-31T12:35:33.497Z,30.13
2024-01-31T12:38:35.377Z,28.17
2024-01-31T12:41:37.264Z,26.10
2024-01-31T12:44:39.841Z,25.50
2024-01-31T12:47:41.892Z,26.87
2024-01-31T12:50:43.794Z,25.50
2024-01-31T12:53:45.672Z,25.27
2024-01-31T12:56:47.546Z,26.97
2024-01-31T12:59:50.042Z,23.43
2024-01-31T13:02:52.700Z,21.50
2024-01-31T13:05:54.879Z,18.50
2024-01-31T13:08:56.996Z,19.00
2024-01-31T13:11:59.261Z,30.13
2024-01-31T13:15:01.364Z,33.70
2024-01-31T13:18:05.363Z,35.27
2024-01-31T13:21:07.745Z,35.40
2024-01-31T13:24:12.436Z,32.03
2024-01-31T13:27:14.626Z,33.30
2024-01-31T13:30:16.990Z,31.67
2024-01-31T13:33:19.261Z,30.17
2024-01-31T13:36:21.852Z,30.50
2024-01-31T13:39:24.903Z,28.20
2024-01-31T13:42:26.726Z,25.17
2024-01-31T13:45:28.620Z,26.60
2024-01-31T13:48:30.593Z,26.87
2024-01-31T13:51:32.528Z,25.03
2024-01-31T13:54:34.617Z,28.97
2024-01-31T13:57:36.417Z,30.13
2024-01-31T14:00:38.246Z,25.03
2024-01-31T14:03:40.186Z,25.63
2024-01-31T14:06:42.001Z,15.70
2024-01-31T14:09:43.897Z,17.10
2024-01-31T14:12:45.615Z,16.20
2024-01-31T14:15:47.569Z,14.13
2024-01-31T14:18:49.471Z,11.43
2024-01-31T14:21:54.078Z,9.83
2024-01-31T14:24:56.083Z,8.20
2024-01-31T14:27:57.887Z,7.27
2024-01-31T14:30:59.670Z,6.00
2024-01-31T14:34:01.657Z,6.20
2024-01-31T14:37:03.827Z,6.13
2024-01-31T14:40:06.198Z,5.73
2024-01-31T14:43:07.968Z,5.33
2024-01-31T14:46:09.760Z,5.93
2024-01-31T14:49:14.759Z,6.40
2024-01-31T14:52:16.604Z,8.03
2024-01-31T14:55:19.712Z,5.60
2024-01-31T14:58:21.557Z,6.27
2024-01-31T15:01:23.323Z,5.97
2024-01-31T15:04:25.144Z,7.20
2024-01-31T15:07:30.483Z,5.70
2024-01-31T15:10:33.780Z,4.50
2024-01-31T15:13:35.573Z,5.60
2024-01-31T15:16:38.630Z,5.90
2024-01-31T15:19:48.732Z,5.53
2024-01-31T15:22:50.735Z,5.40
2024-01-31T15:25:52.535Z,5.00
2024-01-31T15:28:54.792Z,6.20
2024-01-31T15:31:56.600Z,6.53
2024-01-31T15:34:58.523Z,5.67
2024-01-31T15:38:00.439Z,5.13
2024-01-31T15:41:04.198Z,7.43
2024-01-31T15:44:06.084Z,6.20
2024-01-31T15:47:12.252Z,14.83
2024-01-31T15:50:14.148Z,13.63
2024-01-31T15:53:15.913Z,14.87
2024-01-31T15:56:17.717Z,12.97
2024-01-31T15:59:19.591Z,6.63
2024-01-31T16:02:21.353Z,13.30
2024-01-31T16:05:23.301Z,11.40
2024-01-31T16:08:25.156Z,10.13
2024-01-31T16:11:27.796Z,7.40
2024-01-31T16:14:29.777Z,5.77
2024-01-31T16:17:31.602Z,6.17
2024-01-31T16:20:35.319Z,6.63
2024-01-31T16:23:37.188Z,6.70
2024-01-31T16:26:42.753Z,5.70
2024-01-31T16:29:44.630Z,7.93
2024-01-31T16:32:46.657Z,9.40
2024-01-31T16:35:48.527Z,10.93
2024-01-31T16:38:50.522Z,11.07
2024-01-31T16:41:53.683Z,6.70
2024-01-31T16:44:56.719Z,8.33
2024-01-31T16:47:58.697Z,7.83
2024-01-31T16:51:00.631Z,7.07
2024-01-31T16:54:02.558Z,9.43
2024-01-31T16:57:06.255Z,9.10
2024-01-31T17:00:08.830Z,6.83
2024-01-31T17:03:10.746Z,6.30
2024-01-31T17:06:12.628Z,6.97
2024-01-31T17:09:14.480Z,5.93
2024-01-31T17:12:16.373Z,7.30
2024-01-31T17:15:18.365Z,8.60
2024-01-31T17:18:22.039Z,7.43
2024-01-31T17:21:24.395Z,7.93
2024-01-31T17:24:26.889Z,7.37
2024-01-31T17:27:28.712Z,7.03
2024-01-31T17:30:30.520Z,7.53
2024-01-31T17:33:32.465Z,8.30
2024-01-31T17:36:34.284Z,10.50
2024-01-31T17:39:36.129Z,7.53
2024-01-31T17:42:38.021Z,8.07
2024-01-31T17:45:39.788Z,6.17
2024-01-31T17:48:41.960Z,9.37
2024-01-31T17:51:43.770Z,8.33
2024-01-31T17:54:45.560Z,7.37
2024-01-31T17:57:48.369Z,7.83
2024-01-31T18:00:50.423Z,7.30
2024-01-31T18:03:52.315Z,8.33
2024-01-31T18:06:54.360Z,6.77
2024-01-31T18:09:56.270Z,7.07
2024-01-31T18:12:58.086Z,8.27
2024-01-31T18:15:59.859Z,8.43
2024-01-31T18:19:03.810Z,7.80
2024-01-31T18:22:06.070Z,6.00
2024-01-31T18:25:08.164Z,7.83
2024-01-31T18:28:10.050Z,7.93
2024-01-31T18:31:12.506Z,7.50
2024-01-31T18:34:14.469Z,9.60
2024-01-31T18:37:19.134Z,8.73
2024-01-31T18:40:21.005Z,8.07
2024-01-31T18:43:24.574Z,6.93
2024-01-31T18:46:26.817Z,8.67
2024-01-31T18:49:28.901Z,6.20
2024-01-31T18:52:31.820Z,8.70
2024-01-31T18:55:36.381Z,10.83
2024-01-31T18:58:38.176Z,7.17
2024-01-31T19:01:39.977Z,8.63
2024-01-31T19:04:51.332Z,6.97
2024-01-31T19:07:58.106Z,8.80
2024-01-31T19:10:59.888Z,8.33
2024-01-31T19:14:03.331Z,6.83
2024-01-31T19:17:11.048Z,9.10
2024-01-31T19:20:20.651Z,9.30
2024-01-31T19:23:22.400Z,9.47
2024-01-31T19:26:24.819Z,7.53
2024-01-31T19:29:27.337Z,10.07
2024-01-31T19:32:29.606Z,9.53
2024-01-31T19:35:31.458Z,15.13
2024-01-31T19:38:33.375Z,11.27
2024-01-31T19:41:35.437Z,15.77
2024-01-31T19:44:37.388Z,13.73
2024-01-31T19:47:39.244Z,12.27
2024-01-31T19:50:41.283Z,9.77
2024-01-31T19:53:53.320Z,8.43
2024-01-31T19:56:55.850Z,11.60
2024-01-31T19:59:57.781Z,9.27
2024-01-31T20:03:00.052Z,11.67
2024-01-31T20:06:02.968Z,9.60
2024-01-31T20:09:11.418Z,8.90
2024-01-31T20:12:13.817Z,10.33
2024-01-31T20:15:15.833Z,7.23
2024-01-31T20:18:18.405Z,8.73
2024-01-31T20:21:20.621Z,7.77
2024-01-31T20:24:23.763Z,9.77
2024-01-31T20:27:26.091Z,9.40
2024-01-31T20:30:29.827Z,8.33
2024-01-31T20:33:31.974Z,9.90
2024-01-31T20:36:33.965Z,11.37
2024-01-31T20:39:36.873Z,14.10
2024-01-31T20:42:40.955Z,14.17
2024-01-31T20:45:42.766Z,12.63
2024-01-31T20:48:51.694Z,11.23
2024-01-31T20:51:53.689Z,10.63
2024-01-31T20:54:55.672Z,14.20
2024-01-31T20:57:57.798Z,9.17
2024-01-31T21:00:59.734Z,8.80
2024-01-31T21:04:02.543Z,10.27
2024-01-31T21:07:04.886Z,6.83
2024-01-31T21:10:11.734Z,10.27
2024-01-31T21:13:15.910Z,7.80
2024-01-31T21:16:17.784Z,8.67
2024-01-31T21:19:19.931Z,8.87
2024-01-31T21:22:22.164Z,6.80
2024-01-31T21:25:24.045Z,7.37
2024-01-31T21:28:25.954Z,9.40
2024-01-31T21:31:27.788Z,8.33
2024-01-31T21:34:29.585Z,7.50
2024-01-31T21:37:31.714Z,7.80
2024-01-31T21:40:33.756Z,9.37
2024-01-31T21:43:36.766Z,6.50
2024-01-31T21:46:41.966Z,8.90
2024-01-31T21:49:44.413Z,7.70
2024-01-31T21:52:46.668Z,9.93
2024-01-31T21:55:48.518Z,9.00
2024-01-31T21:58:50.245Z,6.37
2024-01-31T22:01:52.073Z,8.83
2024-01-31T22:04:54.101Z,7.20
2024-01-31T22:07:55.951Z,8.27
2024-01-31T22:10:57.714Z,5.93
2024-01-31T22:13:59.691Z,8.70
2024-01-31T22:17:01.816Z,7.63
2024-01-31T22:20:04.783Z,7.93
2024-01-31T22:23:06.732Z,5.90
2024-01-31T22:26:09.436Z,6.17
2024-01-31T22:29:11.348Z,5.13
2024-01-31T22:32:13.187Z,8.17
2024-01-31T22:35:15.009Z,6.10
2024-01-31T22:38:17.868Z,5.30
2024-01-31T22:41:21.705Z,7.63
2024-01-31T22:44:23.624Z,7.03
2024-01-31T22:47:25.654Z,8.83
2024-01-31T22:50:27.642Z,6.63
2024-01-31T22:53:29.521Z,6.83
2024-01-31T22:56:31.364Z,6.60
2024-01-31T22:59:33.178Z,8.17
2024-01-31T23:02:35.512Z,6.13
2024-01-31T23:05:37.603Z,7.10
2024-01-31T23:08:39.815Z,7.07
2024-01-31T23:11:42.256Z,7.03
2024-01-31T23:14:47.220Z,6.23
2024-01-31T23:17:49.142Z,7.50
2024-01-31T23:20:51.072Z,7.33
2024-01-31T23:23:52.965Z,8.90
2024-01-31T23:26:55.311Z,8.50
2024-01-31T23:29:57.269Z,8.07
2024-01-31T23:33:00.099Z,8.93
2024-01-31T23:36:02.039Z,8.83
2024-01-31T23:39:05.348Z,8.20
2024-01-31T23:42:07.464Z,7.80
2024-01-31T23:45:09.808Z,8.30
2024-01-31T23:48:11.846Z,7.20
2024-01-31T23:51:14.160Z,8.03
2024-01-31T23:54:16.676Z,6.80
2024-01-31T23:57:18.628Z,6.73
